Time;durP1;ratioP1;P1;durP2;ratioP2;P2;SDS_P1;SDS_P2;PMS_P1;PMS_P2;Temp;Humidity;BMP_temperature;BMP_pressure;BME280_temperature;BME280_humidity;BME280_pressure;Samples;Min_cycle;Max_cycle;Signal;HPM_P1;HPM_P2
2023/04/23 00:00:13;;;;;;;7.97;5.42;;;;;;;5.95;100.00;99978.97;1672618;85;21215;-86
2023/04/23 00:03:19;;;;;;;7.95;5.17;;;;;;;5.85;100.00;99977.66;1669517;85;21231;-87
2023/04/23 00:06:29;;;;;;;8.53;6.85;;;;;;;5.81;100.00;99982.19;1668993;85;21187;-87
2023/04/23 00:09:33;;;;;;;11.90;9.58;;;;;;;5.70;100.00;99987.34;1685231;84;21497;-87
2023/04/23 00:12:38;;;;;;;7.35;6.20;;;;;;;5.66;100.00;99983.22;1671113;85;21213;-87
2023/04/23 00:15:44;;;;;;;15.18;9.63;;;;;;;5.55;100.00;99987.00;1672745;85;21205;-87
2023/04/23 00:18:51;;;;;;;9.38;6.97;;;;;;;5.53;100.00;99984.93;1685257;84;21243;-86
2023/04/23 00:21:57;;;;;;;11.45;7.50;;;;;;;5.59;100.00;99995.67;1669831;86;21194;-87
2023/04/23 00:25:02;;;;;;;13.75;7.25;;;;;;;5.59;100.00;99995.67;1680162;84;21264;-87
2023/04/23 00:28:08;;;;;;;10.48;8.65;;;;;;;5.55;100.00;99991.55;1670100;85;21202;-86
2023/04/23 00:31:14;;;;;;;10.90;8.63;;;;;;;5.54;100.00;99989.84;1670456;85;21200;-87
2023/04/23 00:34:20;;;;;;;13.08;9.35;;;;;;;5.53;100.00;99994.93;1659605;85;21200;-86
2023/04/23 00:37:25;;;;;;;14.00;11.33;;;;;;;5.53;100.00;100001.71;1670742;85;21675;-87
2023/04/23 00:40:31;;;;;;;9.55;6.80;;;;;;;5.55;100.00;99996.50;1669567;85;21790;-87
2023/04/23 00:43:39;;;;;;;6.50;5.58;;;;;;;5.57;100.00;100002.62;1673718;85;21734;-86
2023/04/23 00:46:44;;;;;;;6.53;4.58;;;;;;;5.53;100.00;100004.42;1669611;85;21251;-87
2023/04/23 00:49:50;;;;;;;5.42;4.37;;;;;;;5.51;100.00;100007.30;1682656;84;21260;-87
2023/04/23 00:52:57;;;;;;;8.15;5.47;;;;;;;5.35;100.00;100007.94;1701310;84;21216;-87
2023/04/23 00:56:02;;;;;;;8.13;5.87;;;;;;;5.30;100.00;100011.59;1683755;84;21260;-86
2023/04/23 00:59:07;;;;;;;9.68;6.20;;;;;;;5.22;100.00;100007.92;1668671;85;21535;-86
2023/04/23 01:02:14;;;;;;;8.43;6.30;;;;;;;5.23;100.00;100003.73;1671056;85;22405;-86
2023/04/23 01:05:20;;;;;;;8.63;6.42;;;;;;;5.24;100.00;100014.07;1685244;84;21779;-86
2023/04/23 01:08:26;;;;;;;11.43;7.40;;;;;;;5.21;100.00;100011.14;1685944;84;21744;-86
2023/04/23 01:11:31;;;;;;;9.93;7.08;;;;;;;5.21;100.00;100018.42;1683370;84;21180;-86
2023/04/23 01:14:37;;;;;;;10.60;7.20;;;;;;;5.24;100.00;100018.14;1702560;84;21149;-86
2023/04/23 01:17:43;;;;;;;13.45;8.93;;;;;;;5.24;100.00;100012.20;1701135;84;21197;-86
2023/04/23 01:20:50;;;;;;;13.88;7.15;;;;;;;5.34;100.00;100020.30;1673834;84;21219;-86
2023/04/23 01:23:55;;;;;;;10.10;6.17;;;;;;;5.35;100.00;100014.72;1676045;83;21205;-86
2023/04/23 01:27:01;;;;;;;8.53;6.30;;;;;;;5.42;100.00;100016.84;1658326;86;21208;-87
2023/04/23 01:30:06;;;;;;;9.78;6.10;;;;;;;5.43;100.00;100013.13;1687553;84;21153;-86
2023/04/23 01:33:12;;;;;;;14.70;6.97;;;;;;;5.44;100.00;100015.67;1676926;85;21230;-86
2023/04/23 01:36:17;;;;;;;10.95;7.33;;;;;;;5.43;100.00;100014.48;1654836;86;21196;-86
2023/04/23 01:39:23;;;;;;;11.28;6.83;;;;;;;5.51;100.00;100021.38;1679806;84;21204;-86
2023/04/23 01:42:29;;;;;;;10.13;5.72;;;;;;;5.50;100.00;100010.14;1672296;85;21183;-86
2023/04/23 01:45:34;;;;;;;13.55;6.60;;;;;;;5.53;100.00;100013.92;1695803;84;21164;-86
2023/04/23 01:48:40;;;;;;;10.70;5.67;;;;;;;5.48;100.00;100017.59;1651107;86;21196;-86
2023/04/23 01:51:39;;;;;;;7.70;4.93;;;;;;;5.44;100.00;100017.03;1644071;86;21285;-86
2023/04/23 01:54:45;;;;;;;14.18;5.67;;;;;;;5.43;100.00;100015.33;1676158;84;22395;-86
2023/04/23 01:57:52;;;;;;;7.37;4.95;;;;;;;5.42;100.00;100008.20;1671357;84;21202;-86
2023/04/23 02:00:59;;;;;;;10.03;5.50;;;;;;;5.40;100.00;100016.98;1641874;87;21198;-86
2023/04/23 02:04:05;;;;;;;26.05;5.72;;;;;;;5.36;100.00;100013.73;1676660;84;21184;-86
2023/04/23 02:07:11;;;;;;;12.45;5.30;;;;;;;5.33;100.00;100009.95;1676700;85;21210;-86
2023/04/23 02:10:17;;;;;;;11.53;5.62;;;;;;;5.29;100.00;100013.97;1657670;86;21247;-86
2023/04/23 02:13:23;;;;;;;13.30;7.97;;;;;;;5.26;100.00;100012.89;1681815;84;21373;-86
2023/04/23 02:16:29;;;;;;;16.12;9.63;;;;;;;5.21;100.00;100011.64;1675549;85;21790;-86
2023/04/23 02:19:35;;;;;;;14.40;9.55;;;;;;;5.19;100.00;100010.95;1700636;84;21146;-86
2023/04/23 02:22:35;;;;;;;15.75;8.33;;;;;;;5.20;100.00;100008.59;1694887;84;21269;-86
2023/04/23 02:25:41;;;;;;;9.63;6.60;;;;;;;5.19;100.00;100007.73;1694992;84;21263;-86
2023/04/23 02:28:48;;;;;;;9.65;6.08;;;;;;;5.19;100.00;100015.88;1709090;83;21223;-86
2023/04/23 02:31:53;;;;;;;11.53;5.72;;;;;;;5.19;100.00;100017.73;1693932;84;21889;-86
2023/04/23 02:34:52;;;;;;;7.70;5.58;;;;;;;5.22;100.00;100022.83;1710796;83;21481;-86
2023/04/23 02:37:59;;;;;;;8.48;5.75;;;;;;;5.23;100.00;100029.99;1693654;84;21183;-86
2023/04/23 02:41:05;;;;;;;7.67;5.00;;;;;;;5.20;100.00;100026.21;1712375;83;21781;-86
2023/04/23 02:44:05;;;;;;;6.25;4.65;;;;;;;5.27;100.00;100030.02;1712296;83;21181;-86
2023/04/23 02:46:59;;;;;;;8.40;5.50;;;;;;;5.25;100.00;100026.11;1715475;83;21201;-86
2023/04/23 02:49:45;;;;;;;8.55;4.92;;;;;;;5.25;100.00;100035.60;1715656;83;21750;-86
2023/04/23 02:52:37;;;;;;;6.05;4.67;;;;;;;5.25;100.00;100040.17;1692541;84;21762;-86
2023/04/23 02:55:24;;;;;;;9.00;5.10;;;;;;;5.24;100.00;100046.61;1715650;83;21215;-87
2023/04/23 02:58:16;;;;;;;7.83;5.10;;;;;;;5.21;100.00;100039.61;1692207;84;21746;-87
2023/04/23 03:01:23;;;;;;;6.25;4.67;;;;;;;5.27;100.00;100039.03;1712501;83;21196;-86
2023/04/23 03:04:30;;;;;;;7.17;4.85;;;;;;;5.31;100.00;100045.00;1716172;83;21737;-87
2023/04/23 03:07:37;;;;;;;9.28;4.65;;;;;;;5.31;100.00;100047.20;1714940;83;21188;-86
2023/04/23 03:10:43;;;;;;;10.58;4.37;;;;;;;5.45;100.00;100050.44;1677595;84;21226;-86
2023/04/23 03:13:49;;;;;;;6.80;4.90;;;;;;;5.51;100.00;100052.57;1711195;83;21189;-86
2023/04/23 03:16:54;;;;;;;13.83;4.58;;;;;;;5.64;100.00;100053.05;1720778;82;21184;-87
2023/04/23 03:19:59;;;;;;;6.10;4.30;;;;;;;5.70;100.00;100052.47;1679604;84;21734;-86
2023/04/23 03:23:06;;;;;;;11.20;6.20;;;;;;;5.82;100.00;100053.95;1689975;84;21160;-86
2023/04/23 03:26:12;;;;;;;16.00;7.05;;;;;;;5.90;100.00;100058.13;1676629;84;21266;-87
2023/04/23 03:29:17;;;;;;;14.85;5.67;;;;;;;6.03;100.00;100061.02;1652119;86;21803;-86
2023/04/23 03:32:23;;;;;;;18.17;6.55;;;;;;;6.10;100.00;100062.09;1655799;86;21195;-87
2023/04/23 03:35:30;;;;;;;9.23;6.00;;;;;;;6.23;100.00;100061.73;1652958;86;21228;-87
2023/04/23 03:38:39;;;;;;;9.83;4.50;;;;;;;6.39;100.00;100064.08;1634345;87;21182;-87
2023/04/23 03:41:46;;;;;;;15.35;7.58;;;;;;;6.46;100.00;100064.84;1641403;86;21259;-87
2023/04/23 03:44:53;;;;;;;15.48;6.95;;;;;;;6.66;100.00;100074.52;1626352;87;21212;-87
2023/04/23 03:47:59;;;;;;;14.85;7.22;;;;;;;6.77;100.00;100075.62;1634165;87;21259;-87
2023/04/23 03:51:06;;;;;;;14.87;7.33;;;;;;;6.95;100.00;100076.10;1658767;86;21524;-87
2023/04/23 03:54:12;;;;;;;15.25;9.35;;;;;;;7.13;100.00;100082.36;1622154;87;21164;-87
2023/04/23 03:57:24;;;;;;;15.65;8.73;;;;;;;7.30;100.00;100077.88;1655509;86;21717;-86
2023/04/23 04:00:49;;;;;;;11.35;7.65;;;;;;;7.56;100.00;100084.64;1645511;86;21196;-87
2023/04/23 04:03:54;;;;;;;9.70;6.10;;;;;;;7.82;100.00;100077.80;1653726;86;21191;-87
2023/04/23 04:06:55;;;;;;;11.78;6.35;;;;;;;8.00;100.00;100087.20;1625342;87;21211;-87
2023/04/23 04:10:02;;;;;;;17.52;6.28;;;;;;;8.23;100.00;100086.08;1653651;86;21204;-87
2023/04/23 04:13:07;;;;;;;8.48;5.83;;;;;;;8.44;100.00;100090.09;1637341;87;21308;-87
2023/04/23 04:16:13;;;;;;;9.18;5.60;;;;;;;8.63;100.00;100097.09;1650718;86;21232;-87
2023/04/23 04:19:19;;;;;;;10.72;5.15;;;;;;;8.88;100.00;100102.05;1654869;86;21192;-87
2023/04/23 04:22:24;;;;;;;11.90;5.83;;;;;;;9.12;100.00;100098.96;1623132;87;21224;-87
2023/04/23 04:25:30;;;;;;;9.00;5.47;;;;;;;9.37;100.00;100105.26;1632991;87;21200;-87
2023/04/23 04:28:36;;;;;;;9.68;5.78;;;;;;;9.62;100.00;100109.62;1647832;84;21801;-87
2023/04/23 04:31:42;;;;;;;11.95;6.28;;;;;;;9.82;100.00;100116.89;1708728;83;21227;-87
2023/04/23 04:34:49;;;;;;;14.68;6.10;;;;;;;10.05;100.00;100116.13;1709531;83;21196;-87
2023/04/23 04:37:54;;;;;;;9.38;5.62;;;;;;;10.22;100.00;100124.59;1679755;84;21785;-87
2023/04/23 04:41:02;;;;;;;9.35;5.05;;;;;;;10.41;100.00;100128.28;1716278;83;21160;-87
2023/04/23 04:44:08;;;;;;;15.70;5.20;;;;;;;10.60;99.44;100131.07;1691229;84;21274;-87
2023/04/23 04:47:15;;;;;;;10.40;4.80;;;;;;;10.81;98.39;100130.92;1710518;83;21243;-87
2023/04/23 04:50:21;;;;;;;8.60;5.12;;;;;;;11.02;97.43;100133.84;1694085;84;21424;-87
2023/04/23 04:53:27;;;;;;;15.72;4.92;;;;;;;11.15;96.58;100137.31;1716941;83;21182;-87
2023/04/23 04:56:33;;;;;;;9.25;5.75;;;;;;;11.28;95.93;100133.44;1716172;83;21172;-87
2023/04/23 04:59:38;;;;;;;13.95;6.70;;;;;;;11.42;95.10;100137.25;1676320;84;21750;-87
2023/04/23 05:02:44;;;;;;;12.98;6.15;;;;;;;11.62;93.77;100137.55;1714088;83;21172;-87
2023/04/23 05:05:53;;;;;;;22.42;7.78;;;;;;;11.76;92.58;100136.22;1708325;83;21192;-87
2023/04/23 05:08:59;;;;;;;14.45;6.80;;;;;;;11.86;92.13;100135.97;1693249;84;21825;-87
2023/04/23 05:12:06;;;;;;;12.88;6.37;;;;;;;12.09;91.68;100140.47;1717242;83;21790;-87
2023/04/23 05:15:14;;;;;;;12.47;6.70;;;;;;;12.19;91.25;100139.16;1715718;83;21735;-87
2023/04/23 05:18:20;;;;;;;16.37;7.15;;;;;;;12.29;90.38;100137.50;1718067;83;21190;-87
2023/04/23 05:21:27;;;;;;;19.10;7.67;;;;;;;12.43;88.61;100140.73;1712251;83;21790;-87
2023/04/23 05:24:33;;;;;;;15.48;7.53;;;;;;;12.54;87.96;100144.33;1675545;84;21782;-87
2023/04/23 05:27:38;;;;;;;34.15;10.68;;;;;;;12.68;87.47;100147.23;1718314;83;21909;-87
2023/04/23 05:30:44;;;;;;;34.83;12.68;;;;;;;12.86;84.89;100154.51;1718454;83;21745;-87
2023/04/23 05:33:50;;;;;;;34.15;12.78;;;;;;;13.01;82.56;100164.05;1714482;83;21377;-87
2023/04/23 05:36:57;;;;;;;32.23;12.63;;;;;;;13.18;80.64;100161.91;1717084;83;21168;-87
2023/04/23 05:40:02;;;;;;;34.55;12.13;;;;;;;13.29;80.55;100166.89;1710413;83;21183;-86
2023/04/23 05:43:08;;;;;;;22.87;10.32;;;;;;;13.40;77.65;100171.84;1711559;83;21144;-87
2023/04/23 05:46:14;;;;;;;22.45;9.00;;;;;;;13.45;77.48;100172.09;1712648;83;21179;-86
2023/04/23 05:49:19;;;;;;;29.63;10.65;;;;;;;13.54;76.23;100180.52;1697122;84;21183;-86
2023/04/23 05:52:29;;;;;;;28.60;10.35;;;;;;;13.69;74.42;100185.08;1683161;84;21197;-87
2023/04/23 05:55:35;;;;;;;29.32;9.85;;;;;;;13.80;73.06;100176.30;1688251;84;21231;-87
2023/04/23 05:58:34;;;;;;;25.48;9.70;;;;;;;13.96;71.43;100179.25;1695417;84;21176;-86
2023/04/23 06:01:40;;;;;;;24.72;9.45;;;;;;;14.03;71.37;100182.38;1690813;84;21197;-80
2023/04/23 06:04:39;;;;;;;21.33;9.45;;;;;;;14.14;70.53;100175.98;1689272;84;21209;-86
2023/04/23 06:07:45;;;;;;;22.98;9.68;;;;;;;14.19;69.74;100177.59;1689174;84;21176;-81
2023/04/23 06:10:50;;;;;;;22.17;8.40;;;;;;;14.31;69.51;100182.33;1686283;84;21202;-81
2023/04/23 06:13:58;;;;;;;26.87;9.50;;;;;;;14.38;68.46;100175.47;1679823;84;21160;-87
2023/04/23 06:17:02;;;;;;;29.67;9.90;;;;;;;14.47;69.17;100188.00;1689959;84;21157;-87
2023/04/23 06:20:09;;;;;;;27.45;8.55;;;;;;;14.61;68.32;100183.97;1690545;84;21148;-81
2023/04/23 06:23:16;;;;;;;28.73;8.10;;;;;;;14.73;66.77;100201.08;1690448;84;21237;-87
2023/04/23 06:26:21;;;;;;;22.22;7.28;;;;;;;14.97;64.96;100202.42;1687554;84;21174;-81
2023/04/23 06:29:30;;;;;;;26.07;7.08;;;;;;;15.14;64.43;100204.78;1690037;84;21212;-81
2023/04/23 06:32:37;;;;;;;20.82;6.58;;;;;;;15.48;64.00;100203.76;1688641;84;21177;-87
2023/04/23 06:35:42;;;;;;;19.50;6.58;;;;;;;15.78;62.54;100207.00;1688085;84;21170;-87
2023/04/23 06:38:48;;;;;;;17.40;5.90;;;;;;;15.94;62.68;100207.92;1686810;84;21205;-82
2023/04/23 06:41:53;;;;;;;17.40;5.83;;;;;;;15.95;60.70;100215.67;1685952;84;21172;-80
2023/04/23 06:45:03;;;;;;;19.48;5.80;;;;;;;15.85;60.20;100214.72;1691221;84;21162;-80
2023/04/23 06:48:09;;;;;;;19.37;5.95;;;;;;;15.69;60.23;100209.65;1685608;84;21181;-80
2023/04/23 06:51:15;;;;;;;18.57;6.42;;;;;;;15.69;60.37;100213.25;1691679;84;21165;-88
2023/04/23 06:54:22;;;;;;;18.65;5.70;;;;;;;15.72;61.01;100218.89;1688966;84;21150;-80
2023/04/23 06:57:26;;;;;;;18.07;6.30;;;;;;;15.81;59.56;100219.84;1689975;84;21165;-81
2023/04/23 07:00:31;;;;;;;12.80;5.25;;;;;;;15.87;59.62;100211.23;1717991;83;21201;-86
2023/04/23 07:03:36;;;;;;;16.70;5.47;;;;;;;16.08;59.18;100218.41;1677238;85;21209;-87
2023/04/23 07:06:42;;;;;;;21.35;6.05;;;;;;;16.31;59.59;100222.09;1649931;87;21198;-88
2023/04/23 07:09:48;;;;;;;11.75;5.87;;;;;;;16.51;58.81;100214.59;1647224;87;21180;-81
2023/04/23 07:12:54;;;;;;;15.72;5.78;;;;;;;16.67;60.50;100213.81;1667127;86;21192;-88
2023/04/23 07:15:59;;;;;;;18.17;6.03;;;;;;;16.78;59.33;100219.52;1668905;86;21622;-86
2023/04/23 07:19:05;;;;;;;26.12;7.00;;;;;;;16.91;59.96;100225.53;1666535;86;21721;-82
2023/04/23 07:22:10;;;;;;;16.40;6.75;;;;;;;16.85;60.07;100227.80;1663483;86;21780;-87
2023/04/23 07:25:15;;;;;;;26.75;9.13;;;;;;;16.72;60.11;100226.47;1663456;86;21196;-81
2023/04/23 07:28:20;;;;;;;19.07;7.80;;;;;;;16.52;60.96;100228.73;1664711;86;21173;-79
2023/04/23 07:31:27;;;;;;;20.20;7.72;;;;;;;16.43;61.34;100230.03;1665183;86;21220;-87
2023/04/23 07:34:35;;;;;;;19.25;6.60;;;;;;;16.32;61.06;100234.81;1665007;86;21149;-81
2023/04/23 07:37:42;;;;;;;27.27;7.22;;;;;;;16.25;60.73;100234.84;1665262;86;21192;-80
2023/04/23 07:40:48;;;;;;;19.67;7.58;;;;;;;15.98;60.86;100240.92;1667762;84;21169;-80
2023/04/23 07:43:47;;;;;;;23.55;7.50;;;;;;;15.88;61.96;100245.18;1663096;86;21215;-88
2023/04/23 07:46:54;;;;;;;28.95;7.80;;;;;;;15.81;62.83;100241.05;1668184;86;21207;-80
2023/04/23 07:50:00;;;;;;;16.93;6.12;;;;;;;15.72;62.49;100245.08;1665002;84;21239;-81
2023/04/23 07:53:05;;;;;;;21.15;6.37;;;;;;;15.71;61.72;100247.50;1665711;86;21187;-80
2023/04/23 07:56:11;;;;;;;25.75;6.55;;;;;;;15.61;62.15;100250.64;1667513;86;21197;-88
2023/04/23 07:59:17;;;;;;;17.80;6.70;;;;;;;15.49;61.35;100246.30;1674571;83;21705;-81
2023/04/23 08:02:24;;;;;;;20.75;6.20;;;;;;;15.50;61.86;100253.50;1690473;84;21215;-88
2023/04/23 08:05:25;;;;;;;19.90;7.75;;;;;;;15.45;62.48;100251.05;1691315;84;21216;-88
2023/04/23 08:08:20;;;;;;;21.33;7.28;;;;;;;15.40;63.05;100249.46;1690421;84;21183;-88
2023/04/23 08:11:08;;;;;;;22.70;7.33;;;;;;;15.39;63.07;100251.38;1693066;84;21796;-80
2023/04/23 08:14:01;;;;;;;21.65;7.70;;;;;;;15.38;62.86;100244.14;1691994;84;21180;-81
2023/04/23 08:17:06;;;;;;;13.55;6.20;;;;;;;15.42;62.87;100239.91;1691416;84;21861;-81
2023/04/23 08:20:12;;;;;;;21.25;7.20;;;;;;;15.52;63.37;100244.47;1691584;84;21239;-87
2023/04/23 08:23:18;;;;;;;23.05;7.53;;;;;;;15.51;63.17;100237.80;1689043;84;21168;-81
2023/04/23 08:26:23;;;;;;;23.38;6.33;;;;;;;15.49;61.97;100236.65;1689599;85;21164;-89
2023/04/23 08:29:29;;;;;;;16.00;4.87;;;;;;;15.55;62.93;100237.70;1671700;86;21178;-88
2023/04/23 08:32:35;;;;;;;16.60;4.60;;;;;;;15.59;60.56;100239.83;1696860;84;21641;-82
2023/04/23 08:35:41;;;;;;;15.72;3.90;;;;;;;15.59;59.74;100243.97;1714775;83;21184;-88
2023/04/23 08:38:47;;;;;;;13.15;4.30;;;;;;;15.66;59.26;100243.14;1711727;83;21736;-80
2023/04/23 08:41:53;;;;;;;15.80;5.53;;;;;;;15.69;60.57;100245.49;1712638;83;21211;-88
2023/04/23 08:44:59;;;;;;;8.70;3.45;;;;;;;15.78;59.27;100237.33;1710923;83;21218;-88
2023/04/23 08:48:06;;;;;;;13.18;4.47;;;;;;;15.78;58.27;100240.09;1698687;84;21219;-88
2023/04/23 08:51:12;;;;;;;15.70;4.65;;;;;;;15.77;58.28;100245.30;1665643;86;21840;-81
2023/04/23 08:54:17;;;;;;;13.58;3.85;;;;;;;15.80;59.15;100242.09;1697073;84;21176;-81
2023/04/23 08:57:23;;;;;;;15.00;3.90;;;;;;;15.90;57.25;100243.05;1715046;83;21848;-88
2023/04/23 09:00:29;;;;;;;20.15;4.40;;;;;;;16.06;56.46;100241.24;1693896;84;21169;-87
2023/04/23 09:03:35;;;;;;;11.38;4.00;;;;;;;16.23;56.82;100240.25;1664645;86;21235;-81
2023/04/23 09:06:43;;;;;;;14.70;3.52;;;;;;;16.36;59.25;100237.47;1665382;86;21218;-88
2023/04/23 09:09:48;;;;;;;8.80;3.25;;;;;;;16.49;57.30;100234.68;1657678;86;21168;-88
2023/04/23 09:12:54;;;;;;;23.00;4.05;;;;;;;16.63;55.45;100231.88;1662952;86;21195;-80
2023/04/23 09:15:59;;;;;;;14.07;2.80;;;;;;;16.64;54.63;100228.05;1664984;86;21172;-80
2023/04/23 09:19:06;;;;;;;10.98;2.50;;;;;;;16.75;56.85;100232.91;1663318;86;21183;-80
2023/04/23 09:22:11;;;;;;;12.33;2.90;;;;;;;16.85;54.73;100223.66;1666568;86;21176;-87
2023/04/23 09:25:16;;;;;;;6.05;2.55;;;;;;;16.85;53.77;100213.98;1666279;86;21777;-86
2023/04/23 09:28:21;;;;;;;9.55;2.42;;;;;;;16.75;53.24;100217.72;1665777;86;21666;-81
2023/04/23 09:31:28;;;;;;;12.00;2.72;;;;;;;16.64;52.85;100221.14;1669384;86;21184;-80
2023/04/23 09:34:33;;;;;;;7.20;2.30;;;;;;;16.51;52.59;100217.34;1656151;86;21227;-82
2023/04/23 09:37:40;;;;;;;14.78;2.65;;;;;;;16.47;52.90;100216.66;1663017;86;21192;-88
2023/04/23 09:40:38;;;;;;;13.35;3.42;;;;;;;16.38;53.53;100214.66;1665020;86;21216;-87
2023/04/23 09:43:44;;;;;;;10.25;2.65;;;;;;;16.44;52.49;100220.68;1664058;86;21164;-83
2023/04/23 09:46:51;;;;;;;7.47;2.95;;;;;;;16.37;50.92;100217.08;1666593;86;21212;-88
2023/04/23 09:49:56;;;;;;;11.57;2.50;;;;;;;16.25;51.27;100208.62;1666320;86;21271;-81
2023/04/23 09:53:02;;;;;;;14.73;3.00;;;;;;;16.24;51.73;100208.86;1665566;86;21207;-88
2023/04/23 09:56:08;;;;;;;20.57;2.87;;;;;;;16.21;50.80;100208.73;1665628;86;21168;-88
2023/04/23 09:59:29;;;;;;;18.15;3.58;;;;;;;16.35;50.43;100207.64;1665622;86;21203;-88
2023/04/23 10:02:36;;;;;;;12.93;3.10;;;;;;;16.36;48.49;100208.48;1686349;85;21173;-81
2023/04/23 10:05:47;;;;;;;18.52;3.37;;;;;;;16.43;48.67;100207.11;1692340;85;21164;-81
2023/04/23 10:08:55;;;;;;;10.38;3.00;;;;;;;16.41;48.89;100210.06;1692563;85;21219;-88
2023/04/23 10:12:04;;;;;;;11.88;3.05;;;;;;;16.46;48.71;100206.65;1689531;84;21176;-87
2023/04/23 10:15:15;;;;;;;16.55;2.80;;;;;;;16.43;48.52;100198.83;1691678;85;21164;-84
2023/04/23 10:18:25;;;;;;;12.78;3.08;;;;;;;16.40;50.69;100197.33;1691489;84;21183;-88
2023/04/23 10:21:32;;;;;;;14.53;3.23;;;;;;;16.45;49.84;100194.77;1671509;85;21163;-88
2023/04/23 10:24:41;;;;;;;7.58;2.40;;;;;;;16.50;48.89;100193.58;1690351;84;21715;-87
2023/04/23 10:27:50;;;;;;;10.32;3.33;;;;;;;16.71;49.60;100188.30;1691333;85;21179;-88
2023/04/23 10:30:55;;;;;;;12.05;2.72;;;;;;;16.81;50.94;100183.72;1692514;84;21207;-80
2023/04/23 10:34:04;;;;;;;9.08;2.50;;;;;;;16.92;49.23;100179.41;1689119;84;21168;-81
2023/04/23 10:37:08;;;;;;;8.38;2.70;;;;;;;16.95;49.66;100178.98;1690185;85;21164;-88
2023/04/23 10:40:20;;;;;;;9.30;2.60;;;;;;;16.81;48.67;100178.20;1691593;85;21184;-80
2023/04/23 10:43:26;;;;;;;9.13;2.77;;;;;;;16.84;48.28;100172.21;1691395;84;21740;-81
2023/04/23 10:46:41;;;;;;;15.60;3.67;;;;;;;16.96;49.44;100173.22;1691317;84;21728;-80
2023/04/23 10:49:47;;;;;;;8.33;3.25;;;;;;;17.04;49.49;100166.59;1691727;84;21192;-81
2023/04/23 10:52:55;;;;;;;10.20;2.60;;;;;;;16.93;48.92;100177.80;1692121;84;21204;-82
2023/04/23 10:55:55;;;;;;;12.03;3.22;;;;;;;16.95;49.34;100166.01;1696059;83;21176;-86
2023/04/23 10:59:00;;;;;;;9.90;2.83;;;;;;;16.98;48.51;100174.37;1693867;83;21135;-87
2023/04/23 11:02:07;;;;;;;8.68;3.02;;;;;;;17.04;48.63;100171.58;1693906;82;21199;-79
2023/04/23 11:05:16;;;;;;;12.28;3.33;;;;;;;16.99;48.69;100167.80;1672392;84;21107;-79
2023/04/23 11:08:21;;;;;;;8.78;2.72;;;;;;;17.06;49.11;100168.59;1652058;85;21186;-81
2023/04/23 11:11:27;;;;;;;18.17;3.92;;;;;;;17.10;48.46;100167.92;1668128;85;21181;-88
2023/04/23 11:14:55;;;;;;;13.20;3.52;;;;;;;17.05;48.63;100171.89;1637217;85;21157;-89
2023/04/23 11:18:04;;;;;;;15.03;3.00;;;;;;;17.07;49.12;100166.97;1665229;85;21180;-88
2023/04/23 11:21:12;;;;;;;13.30;3.27;;;;;;;17.05;49.63;100160.84;1668310;85;21710;-88
2023/04/23 11:24:18;;;;;;;11.53;3.22;;;;;;;17.08;48.29;100164.55;1666977;85;21187;-81
2023/04/23 11:27:24;;;;;;;16.57;3.45;;;;;;;17.22;48.82;100162.55;1668893;85;21766;-81
2023/04/23 11:30:36;;;;;;;16.17;3.27;;;;;;;17.40;48.61;100170.05;1667176;85;21163;-81
2023/04/23 11:33:43;;;;;;;16.77;3.17;;;;;;;17.50;47.52;100169.55;1669446;85;21169;-81
2023/04/23 11:36:48;;;;;;;14.55;3.10;;;;;;;17.66;47.34;100169.53;1668447;85;21183;-88
2023/04/23 11:39:55;;;;;;;10.03;2.87;;;;;;;17.67;47.53;100165.69;1670210;84;21613;-81
2023/04/23 11:43:03;;;;;;;16.87;3.77;;;;;;;17.63;48.12;100159.22;1664442;85;21189;-90
2023/04/23 11:46:08;;;;;;;9.98;2.85;;;;;;;17.50;48.41;100164.89;1668549;84;21923;-89
2023/04/23 11:49:14;;;;;;;12.25;3.45;;;;;;;17.43;48.55;100161.31;1670061;85;21174;-82
2023/04/23 11:52:20;;;;;;;9.18;2.75;;;;;;;17.23;48.27;100160.62;1669218;85;21821;-82
2023/04/23 11:55:25;;;;;;;14.05;3.05;;;;;;;17.16;49.22;100160.66;1668540;85;21797;-81
2023/04/23 11:58:30;;;;;;;7.17;2.40;;;;;;;17.07;46.10;100164.21;1664600;85;21171;-89
2023/04/23 12:01:52;;;;;;;11.40;2.75;;;;;;;16.95;45.63;100156.34;1667682;85;21206;-89
2023/04/23 12:04:58;;;;;;;6.97;2.30;;;;;;;16.89;45.01;100151.70;1652493;85;21732;-88
2023/04/23 12:08:23;;;;;;;9.58;2.72;;;;;;;16.95;46.46;100146.67;1665756;85;22068;-88
2023/04/23 12:11:23;;;;;;;11.30;4.12;;;;;;;17.09;46.43;100141.91;1668425;85;21583;-88
2023/04/23 12:14:34;;;;;;;8.45;2.95;;;;;;;17.25;46.43;100139.13;1664993;85;21229;-80
2023/04/23 12:17:40;;;;;;;11.68;3.17;;;;;;;17.35;45.46;100139.46;1667785;85;21549;-81
2023/04/23 12:20:46;;;;;;;8.45;2.85;;;;;;;17.44;45.19;100143.64;1667899;85;21169;-81
2023/04/23 12:23:51;;;;;;;7.37;2.50;;;;;;;17.47;45.30;100147.35;1668285;85;21215;-89
2023/04/23 12:27:01;;;;;;;13.00;2.90;;;;;;;17.45;42.91;100144.48;1668927;85;21193;-81
2023/04/23 12:30:10;;;;;;;14.15;3.50;;;;;;;17.35;43.96;100140.84;1669520;84;21159;-88
2023/04/23 12:33:17;;;;;;;7.42;3.02;;;;;;;17.27;44.44;100138.38;1665721;84;21818;-80
2023/04/23 12:36:23;;;;;;;11.70;2.50;;;;;;;17.20;44.70;100140.33;1665873;85;21164;-81
2023/04/23 12:39:39;;;;;;;14.13;2.58;;;;;;;17.19;43.61;100136.73;1668979;85;21190;-89
2023/04/23 12:42:45;;;;;;;12.88;3.45;;;;;;;17.22;42.90;100135.41;1667264;85;21204;-81
2023/04/23 12:45:51;;;;;;;9.80;3.20;;;;;;;17.19;43.31;100128.97;1667946;85;21708;-81
2023/04/23 12:48:57;;;;;;;8.55;2.02;;;;;;;17.22;43.48;100125.23;1666725;85;21752;-81
2023/04/23 12:52:03;;;;;;;11.03;2.70;;;;;;;17.28;43.40;100126.25;1668651;84;21864;-81
2023/04/23 12:55:10;;;;;;;11.55;3.12;;;;;;;17.29;42.34;100121.02;1681820;83;21211;-80
2023/04/23 12:58:16;;;;;;;5.75;2.62;;;;;;;17.36;42.84;100127.33;1661517;86;21200;-88
2023/04/23 13:01:22;;;;;;;14.30;3.45;;;;;;;17.46;42.97;100126.85;1662311;86;21224;-89
2023/04/23 13:04:27;;;;;;;8.35;2.42;;;;;;;17.58;42.10;100134.16;1675021;82;21235;-88
2023/04/23 13:07:33;;;;;;;10.55;2.17;;;;;;;17.63;48.48;100163.37;1713570;83;21853;-89
2023/04/23 13:10:39;;;;;;;10.08;2.20;;;;;;;17.02;49.03;100151.59;1697737;84;21243;-80
2023/04/23 13:13:45;;;;;;;7.35;2.02;;;;;;;16.41;51.03;100147.11;1695253;84;21215;-89
2023/04/23 13:16:51;;;;;;;3.15;1.85;;;;;;;15.93;53.53;100169.53;1669579;86;21223;-88
2023/04/23 13:19:57;;;;;;;13.00;2.08;;;;;;;15.59;53.54;100191.59;1669545;86;21187;-86
2023/04/23 13:23:03;;;;;;;4.60;2.10;;;;;;;15.36;54.60;100162.75;1664961;86;21678;-80
2023/04/23 13:26:10;;;;;;;6.15;1.42;;;;;;;15.20;56.12;100165.39;1692586;84;21741;-80
2023/04/23 13:29:16;;;;;;;11.78;2.30;;;;;;;15.05;55.57;100170.53;1713491;83;21195;-83
2023/04/23 13:32:30;;;;;;;11.05;2.30;;;;;;;14.92;55.58;100186.20;1698456;84;21175;-80
2023/04/23 13:35:36;;;;;;;3.40;1.55;;;;;;;14.84;55.31;100194.11;1699094;84;21720;-80
2023/04/23 13:38:42;;;;;;;3.72;1.85;;;;;;;14.81;54.07;100186.25;1670077;86;21824;-88
2023/04/23 13:41:49;;;;;;;5.72;1.40;;;;;;;14.81;53.86;100205.00;1692739;84;21796;-88
2023/04/23 13:44:56;;;;;;;9.50;1.40;;;;;;;14.85;55.74;100193.05;1712816;83;21176;-81
2023/04/23 13:48:03;;;;;;;5.45;1.30;;;;;;;14.86;54.54;100194.73;1713929;83;21211;-80
2023/04/23 13:51:09;;;;;;;4.67;1.72;;;;;;;14.80;54.91;100212.09;1712193;83;21170;-90
2023/04/23 13:54:16;;;;;;;4.58;1.67;;;;;;;14.70;55.34;100213.86;1699165;84;21161;-83
2023/04/23 13:57:22;;;;;;;7.17;1.62;;;;;;;14.50;57.59;100210.19;1697577;84;21744;-89
2023/04/23 14:00:29;;;;;;;8.55;2.08;;;;;;;14.31;59.83;100211.75;1699308;84;21191;-81
2023/04/23 14:03:33;;;;;;;6.47;1.70;;;;;;;14.13;63.45;100216.39;1668372;86;21211;-89
2023/04/23 14:06:39;;;;;;;5.33;2.05;;;;;;;13.90;64.89;100219.93;1695903;83;21863;-80
2023/04/23 14:09:46;;;;;;;7.33;2.10;;;;;;;13.71;66.95;100208.58;1719074;83;21564;-81
2023/04/23 14:12:52;;;;;;;6.40;2.45;;;;;;;13.55;68.01;100206.98;1694365;84;21215;-80
2023/04/23 14:15:56;;;;;;;6.58;2.20;;;;;;;13.43;67.99;100223.66;1696144;83;21195;-89